Terminal Aerodrome Forecast
Issued by NWS Jackson, KY

Home | Current Version | Previous Version | Text Only | Print | Product List | Glossary On
Versions: 1 2 3 4 5 6 7 8 9 10 11 12 13 14 15 16 17 18
696
FTUS43 KJKL 261723
TAFLOZ
TAF
KLOZ 261723Z 2618/2718 25008KT P6SM SCT050
     FM270300 VRB03KT 6SM -SHRA BR VCTS BKN050CB
     FM270700 VRB03KT P6SM BKN040
     FM271500 23007KT P6SM BKN050=

USA.gov is the U.S. government's official web portal to all federal, state and local government web resources and services.